Time;durP1;ratioP1;P1;durP2;ratioP2;P2;SDS_P1;SDS_P2;PMS_P1;PMS_P2;Temp;Humidity;BMP_temperature;BMP_pressure;BME280_temperature;BME280_humidity;BME280_pressure;Samples;Min_cycle;Max_cycle;Signal;HPM_P1;HPM_P2
2023/05/01 00:00:52;;;;;;;5.93;4.90;;;;;;;9.77;69.05;95527.59;6168352;23;20241;-85
2023/05/01 00:03:18;;;;;;;5.20;4.70;;;;;;;9.80;68.68;95533.28;6167307;23;20203;-83
2023/05/01 00:05:44;;;;;;;5.30;4.63;;;;;;;9.84;68.47;95524.28;6191820;23;20193;-84
2023/05/01 00:08:12;;;;;;;5.83;4.60;;;;;;;9.84;68.47;95526.88;6167629;23;20178;-84
2023/05/01 00:10:38;;;;;;;5.33;4.83;;;;;;;9.86;68.76;95517.16;6168224;23;20150;-83
2023/05/01 00:13:04;;;;;;;5.17;4.67;;;;;;;9.87;68.60;95518.81;6167383;23;20181;-82
2023/05/01 00:15:30;;;;;;;5.30;4.90;;;;;;;9.86;68.71;95513.75;6192137;23;20481;-87
2023/05/01 00:17:55;;;;;;;5.40;4.90;;;;;;;9.85;68.41;95510.34;6166262;23;20221;-85
2023/05/01 00:20:27;;;;;;;7.77;5.03;;;;;;;9.78;68.96;95506.69;6179672;23;20162;-84
2023/05/01 00:22:53;;;;;;;5.17;4.63;;;;;;;9.83;68.50;95509.69;6192901;23;20166;-84
2023/05/01 00:25:18;;;;;;;5.03;4.33;;;;;;;9.80;68.74;95506.53;6217358;23;20200;-84
2023/05/01 00:27:44;;;;;;;5.63;5.13;;;;;;;9.79;69.06;95500.53;6191959;23;20162;-84
2023/05/01 00:30:09;;;;;;;5.03;4.63;;;;;;;9.80;68.99;95497.00;6205793;23;20178;-83
2023/05/01 00:32:35;;;;;;;5.40;4.87;;;;;;;9.77;68.97;95497.28;6188698;23;20197;-83
2023/05/01 00:35:00;;;;;;;5.30;4.80;;;;;;;9.79;69.03;95489.34;6167413;23;20205;-84
2023/05/01 00:37:26;;;;;;;6.10;4.50;;;;;;;9.78;68.82;95487.72;6166900;23;20160;-84
2023/05/01 00:39:51;;;;;;;5.17;4.67;;;;;;;9.75;69.06;95483.66;6169654;23;20227;-85
2023/05/01 00:42:17;;;;;;;5.17;4.77;;;;;;;9.73;69.46;95485.59;6169104;23;20162;-84
2023/05/01 00:44:42;;;;;;;7.13;5.20;;;;;;;9.70;69.13;95475.47;6168921;23;20214;-85
2023/05/01 00:47:10;;;;;;;6.63;5.27;;;;;;;9.68;69.49;95482.59;6167647;23;20209;-85
2023/05/01 00:49:36;;;;;;;6.53;4.67;;;;;;;9.70;68.97;95478.06;6168131;23;20208;-85
2023/05/01 00:52:01;;;;;;;6.13;4.97;;;;;;;9.69;69.52;95483.41;6192390;23;20596;-84
2023/05/01 00:54:27;;;;;;;5.70;4.70;;;;;;;9.68;69.37;95479.19;6163745;23;20181;-84
2023/05/01 00:56:53;;;;;;;5.10;4.70;;;;;;;9.65;69.97;95481.09;6189168;23;20166;-84
2023/05/01 00:59:19;;;;;;;5.43;4.73;;;;;;;9.64;69.87;95481.25;6188887;23;20181;-86
2023/05/01 01:01:44;;;;;;;4.80;4.40;;;;;;;9.60;70.02;95467.75;6188660;23;20187;-85
2023/05/01 01:04:10;;;;;;;5.83;5.27;;;;;;;9.61;69.99;95471.16;6191710;23;20232;-86
2023/05/01 01:06:52;;;;;;;6.13;5.00;;;;;;;9.68;69.74;95467.03;6163487;23;20503;-85
2023/05/01 01:09:36;;;;;;;5.00;4.50;;;;;;;9.66;69.94;95463.78;6189317;23;20170;-85
2023/05/01 01:12:04;;;;;;;5.53;5.03;;;;;;;9.64;70.26;95463.09;6188629;23;20158;-84
2023/05/01 01:14:32;;;;;;;5.53;4.70;;;;;;;9.62;70.21;95452.84;6188315;23;20162;-84
2023/05/01 01:17:21;;;;;;;5.63;5.03;;;;;;;9.62;70.46;95457.22;6188883;23;20158;-85
2023/05/01 01:20:04;;;;;;;4.93;4.53;;;;;;;9.62;70.37;95450.25;6189207;23;20185;-85
2023/05/01 01:22:30;;;;;;;6.27;4.97;;;;;;;9.64;70.01;95445.78;6167536;23;20173;-85
2023/05/01 01:25:10;;;;;;;5.13;4.63;;;;;;;9.66;69.86;95445.63;6192157;23;20157;-85
2023/05/01 01:27:47;;;;;;;5.70;5.20;;;;;;;9.67;70.21;95438.66;6191594;23;20785;-86
2023/05/01 01:30:27;;;;;;;6.00;5.13;;;;;;;9.68;70.11;95435.91;6220151;23;20519;-85
2023/05/01 01:33:00;;;;;;;7.13;5.37;;;;;;;9.65;70.01;95442.22;6192085;23;20260;-86
2023/05/01 01:35:27;;;;;;;7.30;5.30;;;;;;;9.63;70.63;95433.78;6193600;23;20158;-85
2023/05/01 01:38:16;;;;;;;5.97;5.37;;;;;;;9.68;70.16;95435.09;6192417;23;20161;-85
2023/05/01 01:40:59;;;;;;;5.93;5.30;;;;;;;9.66;70.53;95440.44;6194028;23;20223;-84
2023/05/01 01:43:26;;;;;;;5.90;5.30;;;;;;;9.68;70.52;95435.91;6192931;23;20150;-85
2023/05/01 01:46:02;;;;;;;6.27;5.67;;;;;;;9.67;70.81;95436.88;6167812;23;20161;-84
2023/05/01 01:48:33;;;;;;;5.90;5.30;;;;;;;9.70;70.77;95440.94;6192587;23;20169;-85
2023/05/01 01:50:59;;;;;;;5.57;4.97;;;;;;;9.71;70.82;95435.63;6192143;23;20208;-84
2023/05/01 01:53:27;;;;;;;7.43;5.50;;;;;;;9.75;70.63;95431.78;6192606;23;20178;-85
2023/05/01 01:55:56;;;;;;;6.50;5.57;;;;;;;9.75;70.91;95436.16;6192084;23;20188;-84
2023/05/01 01:58:25;;;;;;;5.63;5.17;;;;;;;9.81;70.62;95427.81;6167842;23;20239;-85
2023/05/01 02:00:51;;;;;;;5.80;5.30;;;;;;;9.83;70.31;95429.28;6194033;23;20158;-85
2023/05/01 02:03:17;;;;;;;6.33;5.73;;;;;;;9.87;70.26;95430.63;6179406;23;20156;-84
2023/05/01 02:05:43;;;;;;;5.67;5.17;;;;;;;9.90;70.04;95430.34;6189495;23;20149;-84
2023/05/01 02:08:12;;;;;;;7.63;5.37;;;;;;;9.93;70.10;95430.03;6164461;23;20182;-84
2023/05/01 02:10:40;;;;;;;5.97;5.47;;;;;;;9.96;69.78;95426.31;6189145;23;20240;-84
2023/05/01 02:13:17;;;;;;;5.30;4.80;;;;;;;9.99;69.45;95417.47;6188955;23;20162;-85
2023/05/01 02:15:52;;;;;;;5.90;5.30;;;;;;;9.99;69.77;95422.66;6163523;23;20224;-86
2023/05/01 02:18:18;;;;;;;5.17;4.70;;;;;;;10.01;69.21;95415.53;6165373;23;20282;-84
2023/05/01 02:20:44;;;;;;;5.20;4.70;;;;;;;10.06;69.12;95415.88;6163526;23;20196;-84
2023/05/01 02:23:10;;;;;;;6.00;4.80;;;;;;;10.08;68.62;95412.19;6188606;23;20165;-84
2023/05/01 02:25:42;;;;;;;5.50;5.00;;;;;;;10.13;68.12;95414.34;6163683;23;20158;-85
2023/05/01 02:28:47;;;;;;;5.23;4.73;;;;;;;10.17;67.65;95411.31;6162967;23;20182;-85
2023/05/01 02:31:22;;;;;;;4.60;4.07;;;;;;;10.22;66.85;95413.47;6188396;23;20229;-84
2023/05/01 02:33:49;;;;;;;5.73;4.67;;;;;;;10.22;66.42;95405.69;6189177;23;20226;-85
2023/05/01 02:36:15;;;;;;;5.50;4.40;;;;;;;10.27;65.98;95405.25;6188184;23;20166;-84
2023/05/01 02:38:49;;;;;;;5.23;4.60;;;;;;;10.33;65.28;95405.47;6164931;23;20197;-85
2023/05/01 02:41:15;;;;;;;7.33;4.73;;;;;;;10.32;65.27;95398.63;6190754;23;20149;-85
2023/05/01 02:43:45;;;;;;;4.70;4.30;;;;;;;10.34;65.31;95404.53;6190247;23;20157;-85
2023/05/01 02:46:14;;;;;;;5.97;4.60;;;;;;;10.32;65.36;95401.22;6189158;23;20233;-85
2023/05/01 02:48:47;;;;;;;5.30;4.63;;;;;;;10.30;65.45;95397.97;6189402;23;20178;-85
2023/05/01 02:51:21;;;;;;;5.70;5.10;;;;;;;10.28;65.36;95391.31;6165810;23;20522;-85
2023/05/01 02:53:52;;;;;;;5.77;4.17;;;;;;;10.27;65.44;95389.69;6165505;23;20267;-85
2023/05/01 02:56:26;;;;;;;5.00;4.50;;;;;;;10.30;65.42;95394.56;6164975;23;20158;-85
2023/05/01 02:58:53;;;;;;;5.93;5.07;;;;;;;10.30;65.33;95391.97;6191417;23;20256;-85
2023/05/01 03:01:38;;;;;;;5.17;4.67;;;;;;;10.25;65.60;95389.84;6166711;23;20162;-85
2023/05/01 03:04:08;;;;;;;6.43;4.63;;;;;;;10.25;65.40;95384.66;6167094;23;20531;-86
2023/05/01 03:06:37;;;;;;;5.67;4.97;;;;;;;10.25;65.69;95381.22;6192687;23;20150;-84
2023/05/01 03:09:03;;;;;;;6.93;4.60;;;;;;;10.22;65.69;95382.34;6169296;23;20208;-85
2023/05/01 03:11:33;;;;;;;6.20;4.80;;;;;;;10.24;65.78;95377.00;6193928;23;20604;-84
2023/05/01 03:14:04;;;;;;;5.97;5.37;;;;;;;10.18;65.89;95376.59;6168320;23;20180;-85
2023/05/01 03:16:35;;;;;;;5.20;4.80;;;;;;;10.20;65.91;95372.06;6168408;23;20604;-83
2023/05/01 03:19:06;;;;;;;5.07;4.57;;;;;;;10.20;66.00;95369.50;6192550;23;20174;-85
2023/05/01 03:21:32;;;;;;;5.77;5.00;;;;;;;10.17;66.20;95374.16;6167382;23;20261;-85
2023/05/01 03:24:08;;;;;;;6.83;5.30;;;;;;;10.16;65.97;95367.34;6168724;23;20181;-85
2023/05/01 03:26:33;;;;;;;7.07;4.77;;;;;;;10.15;66.25;95376.06;6192315;23;20265;-84
2023/05/01 03:29:01;;;;;;;5.17;4.73;;;;;;;10.17;66.20;95371.56;6168788;23;20764;-85
2023/05/01 03:31:28;;;;;;;6.23;5.37;;;;;;;10.20;66.12;95372.06;6167920;23;20158;-85
2023/05/01 03:33:53;;;;;;;6.00;5.40;;;;;;;10.24;65.65;95370.03;6194416;23;20253;-85
2023/05/01 03:36:21;;;;;;;6.70;5.10;;;;;;;10.26;65.83;95362.13;6166412;23;20166;-85
2023/05/01 03:38:49;;;;;;;5.60;4.67;;;;;;;10.29;65.57;95362.63;6168867;23;20201;-86
2023/05/01 03:41:14;;;;;;;5.40;4.90;;;;;;;10.25;65.45;95363.03;6193248;23;20603;-84
2023/05/01 03:43:42;;;;;;;5.30;4.80;;;;;;;10.26;65.52;95362.91;6192915;23;20154;-85
2023/05/01 03:46:08;;;;;;;6.63;5.13;;;;;;;10.28;65.38;95365.38;6191994;23;20158;-85
2023/05/01 03:48:33;;;;;;;5.93;5.43;;;;;;;10.25;65.63;95363.91;6168312;23;20582;-84
2023/05/01 03:50:58;;;;;;;5.63;5.07;;;;;;;10.28;65.51;95355.78;6169617;23;20228;-85
2023/05/01 03:53:24;;;;;;;5.60;5.00;;;;;;;10.30;65.17;95364.25;6169041;23;20185;-85
2023/05/01 03:55:49;;;;;;;8.87;4.93;;;;;;;10.29;65.49;95352.22;6168768;23;20189;-84
2023/05/01 03:58:21;;;;;;;5.47;5.00;;;;;;;10.32;65.04;95346.72;6168337;23;20178;-84
2023/05/01 04:00:49;;;;;;;7.40;4.63;;;;;;;10.30;65.16;95356.44;6168378;23;20154;-86
2023/05/01 04:03:15;;;;;;;5.90;5.13;;;;;;;10.34;64.91;95355.22;6168741;23;20588;-86
2023/05/01 04:05:45;;;;;;;5.77;5.17;;;;;;;10.32;64.91;95344.13;6193394;23;20160;-86
2023/05/01 04:08:13;;;;;;;6.47;5.07;;;;;;;10.30;65.09;95346.06;6168220;23;20760;-85
2023/05/01 04:10:38;;;;;;;5.70;4.93;;;;;;;10.30;64.84;95358.22;6167680;23;20666;-86
2023/05/01 04:13:07;;;;;;;5.83;5.10;;;;;;;10.34;64.65;95349.19;6168075;23;20189;-86
2023/05/01 04:15:38;;;;;;;9.03;5.30;;;;;;;10.34;64.39;95346.59;6167812;23;20248;-86
2023/05/01 04:18:06;;;;;;;5.50;5.00;;;;;;;10.42;64.05;95349.22;6167890;23;20701;-84
2023/05/01 04:20:34;;;;;;;8.23;5.17;;;;;;;10.43;64.15;95354.31;6168174;23;20196;-84
2023/05/01 04:23:08;;;;;;;5.33;4.80;;;;;;;10.43;64.30;95346.50;6168514;23;20176;-86
2023/05/01 04:25:36;;;;;;;5.30;4.57;;;;;;;10.44;64.24;95349.91;6194093;23;20189;-86
2023/05/01 04:28:01;;;;;;;6.03;5.37;;;;;;;10.46;64.03;95351.38;6168816;23;20165;-86
2023/05/01 04:30:29;;;;;;;5.87;5.10;;;;;;;10.48;64.02;95348.63;6168452;23;20162;-85
2023/05/01 04:32:56;;;;;;;5.67;5.17;;;;;;;10.49;63.50;95348.47;6193393;23;20173;-84
2023/05/01 04:35:22;;;;;;;6.00;4.77;;;;;;;10.57;63.44;95352.91;6193488;23;20192;-85
2023/05/01 04:37:47;;;;;;;5.47;4.87;;;;;;;10.57;63.38;95352.91;6192956;23;20157;-85
2023/05/01 04:40:13;;;;;;;9.43;5.33;;;;;;;10.56;63.21;95356.47;6168464;23;20161;-85
2023/05/01 04:42:41;;;;;;;6.53;5.33;;;;;;;10.61;63.45;95362.03;6168524;23;20204;-86
2023/05/01 04:45:10;;;;;;;5.43;4.93;;;;;;;10.62;63.35;95352.47;6193771;23;20178;-86
2023/05/01 04:47:38;;;;;;;6.23;5.57;;;;;;;10.68;63.15;95354.44;6167961;23;20599;-85
2023/05/01 04:50:04;;;;;;;5.77;5.03;;;;;;;10.63;63.71;95351.50;6193944;23;20938;-85
2023/05/01 04:52:29;;;;;;;6.60;5.03;;;;;;;10.64;64.33;95360.91;6193571;23;20158;-85
2023/05/01 04:54:56;;;;;;;6.47;5.10;;;;;;;10.59;63.79;95358.75;6194191;23;20169;-84
2023/05/01 04:57:22;;;;;;;5.30;4.80;;;;;;;10.64;63.79;95359.13;6186493;23;20146;-85
2023/05/01 04:59:47;;;;;;;5.50;5.00;;;;;;;10.65;63.91;95354.75;6188232;23;20190;-85
2023/05/01 05:02:13;;;;;;;7.43;5.23;;;;;;;10.68;63.92;95355.25;6189673;23;20157;-84
2023/05/01 05:04:38;;;;;;;6.53;4.83;;;;;;;10.71;64.28;95351.56;6164676;23;20161;-86
2023/05/01 05:07:08;;;;;;;6.40;5.37;;;;;;;10.71;64.14;95352.38;6163327;23;20158;-85
2023/05/01 05:09:36;;;;;;;7.87;5.17;;;;;;;10.76;64.28;95357.09;6173921;23;20185;-83
2023/05/01 05:12:04;;;;;;;7.37;5.50;;;;;;;10.68;64.16;95349.25;6192743;23;20153;-84
2023/05/01 05:14:35;;;;;;;5.97;5.37;;;;;;;10.71;64.44;95347.19;6216477;23;20176;-84
2023/05/01 05:17:05;;;;;;;5.90;5.40;;;;;;;10.71;64.94;95357.56;6191483;23;20150;-84
2023/05/01 05:19:34;;;;;;;5.70;5.10;;;;;;;10.74;64.65;95352.06;6201635;23;20193;-86
2023/05/01 05:22:01;;;;;;;5.83;5.23;;;;;;;10.73;64.24;95360.00;6192944;23;20181;-84
2023/05/01 05:24:27;;;;;;;6.43;4.83;;;;;;;10.85;63.78;95361.38;6189147;23;20165;-84
2023/05/01 05:26:53;;;;;;;5.70;5.17;;;;;;;10.91;63.47;95360.75;6188260;23;20597;-84
2023/05/01 05:29:19;;;;;;;6.00;5.10;;;;;;;10.96;64.23;95357.72;6188400;23;20169;-83
2023/05/01 05:31:44;;;;;;;5.43;4.80;;;;;;;10.91;64.34;95352.97;6189323;23;20169;-84
2023/05/01 05:34:10;;;;;;;6.10;5.60;;;;;;;10.95;64.87;95356.88;6163920;23;20170;-85
2023/05/01 05:36:35;;;;;;;5.90;5.40;;;;;;;11.00;64.90;95357.22;6163466;23;20180;-84
2023/05/01 05:39:01;;;;;;;6.80;5.87;;;;;;;11.04;65.55;95355.97;6192174;23;20208;-85
2023/05/01 05:41:27;;;;;;;5.83;5.33;;;;;;;11.02;65.73;95360.50;6167815;23;20154;-85
2023/05/01 05:43:55;;;;;;;5.67;5.10;;;;;;;11.10;65.16;95351.91;6192598;23;20156;-86
2023/05/01 05:46:21;;;;;;;4.87;4.43;;;;;;;11.18;64.81;95354.56;6167599;23;20157;-84
2023/05/01 05:48:46;;;;;;;7.47;5.47;;;;;;;11.16;63.88;95355.69;6191731;23;20182;-84
2023/05/01 05:51:14;;;;;;;5.33;4.83;;;;;;;11.24;64.10;95358.34;6193095;23;20157;-86
2023/05/01 05:53:42;;;;;;;8.13;5.43;;;;;;;11.32;63.63;95351.38;6194314;23;20173;-85
2023/05/01 05:56:17;;;;;;;6.23;4.90;;;;;;;11.41;63.21;95354.81;6165161;23;20169;-84
2023/05/01 05:58:43;;;;;;;7.77;5.23;;;;;;;11.43;63.59;95352.88;6167228;23;20199;-85
2023/05/01 06:01:10;;;;;;;5.67;5.13;;;;;;;11.46;63.06;95357.75;6166922;23;20165;-84
2023/05/01 06:03:37;;;;;;;7.27;5.40;;;;;;;11.64;62.90;95357.63;6167157;23;20216;-84
2023/05/01 06:06:07;;;;;;;5.83;5.23;;;;;;;11.73;62.79;95361.06;6191097;23;20158;-85
2023/05/01 06:08:35;;;;;;;5.80;5.30;;;;;;;11.61;63.65;95365.78;6167349;23;20177;-86
2023/05/01 06:11:06;;;;;;;5.70;5.20;;;;;;;11.78;63.65;95364.03;6191725;23;20180;-86
2023/05/01 06:13:31;;;;;;;5.70;5.10;;;;;;;11.91;63.71;95361.78;6218581;23;20272;-86
2023/05/01 06:15:57;;;;;;;6.13;5.33;;;;;;;11.93;63.15;95365.06;6191169;23;20615;-86
2023/05/01 06:18:22;;;;;;;6.07;5.20;;;;;;;11.76;63.80;95358.19;6166558;23;20640;-83
2023/05/01 06:20:47;;;;;;;5.93;5.43;;;;;;;11.80;64.09;95362.91;6190663;23;20240;-83
2023/05/01 06:23:14;;;;;;;6.57;5.97;;;;;;;11.56;65.02;95358.44;6190434;23;20157;-84
2023/05/01 06:25:39;;;;;;;12.43;9.33;;;;;;;11.77;64.73;95352.81;6217208;23;20488;-84
2023/05/01 06:28:05;;;;;;;15.90;12.47;;;;;;;11.77;64.92;95359.81;6165502;23;20185;-84
2023/05/01 06:30:30;;;;;;;10.73;9.67;;;;;;;11.32;67.11;95360.97;6218075;23;20157;-85
2023/05/01 06:32:55;;;;;;;8.00;7.23;;;;;;;11.54;66.38;95359.56;6189800;23;20170;-83
2023/05/01 06:35:21;;;;;;;6.53;6.03;;;;;;;11.66;66.70;95357.47;6186971;23;20547;-83
2023/05/01 06:37:46;;;;;;;6.77;5.73;;;;;;;11.57;66.45;95364.44;6187764;23;20165;-83
2023/05/01 06:40:11;;;;;;;7.23;5.63;;;;;;;11.68;66.82;95365.97;6189869;23;20563;-84
2023/05/01 06:42:38;;;;;;;6.40;5.90;;;;;;;11.72;67.27;95364.66;6190030;23;20157;-84
2023/05/01 06:45:05;;;;;;;6.90;5.53;;;;;;;11.86;67.06;95371.88;6162792;23;20158;-84
2023/05/01 06:47:30;;;;;;;9.70;5.70;;;;;;;11.55;67.15;95369.00;6211948;23;20162;-82
2023/05/01 06:49:55;;;;;;;6.53;5.93;;;;;;;11.76;67.28;95373.78;6188033;23;20185;-84
2023/05/01 06:52:21;;;;;;;7.07;5.73;;;;;;;11.72;67.90;95373.28;6187261;23;20532;-83
2023/05/01 06:54:46;;;;;;;6.60;5.93;;;;;;;11.73;67.81;95379.28;6188231;23;20158;-85
2023/05/01 06:57:11;;;;;;;7.93;6.60;;;;;;;11.93;67.17;95378.09;6187249;23;20617;-84
2023/05/01 06:59:36;;;;;;;6.60;6.00;;;;;;;11.89;67.77;95372.38;6187862;23;20181;-83
2023/05/01 07:02:02;;;;;;;6.83;5.93;;;;;;;11.74;66.98;95373.91;6187650;23;20162;-83
2023/05/01 07:04:27;;;;;;;6.90;6.07;;;;;;;11.65;67.84;95374.88;6163180;23;20188;-84
2023/05/01 07:06:52;;;;;;;7.30;6.33;;;;;;;11.42;67.86;95369.44;6187618;23;20150;-84
2023/05/01 07:09:18;;;;;;;7.17;6.13;;;;;;;11.70;67.59;95377.00;6214465;23;20201;-84
2023/05/01 07:11:43;;;;;;;5.90;5.40;;;;;;;11.84;66.78;95376.44;6187653;23;20182;-84
2023/05/01 07:14:09;;;;;;;6.10;5.60;;;;;;;11.99;66.07;95380.03;6162993;23;20277;-83
2023/05/01 07:16:34;;;;;;;6.50;5.90;;;;;;;12.16;65.90;95386.06;6187746;23;20233;-83
2023/05/01 07:18:59;;;;;;;8.50;5.90;;;;;;;12.15;65.25;95372.25;6188174;23;20177;-83
2023/05/01 07:21:25;;;;;;;6.40;5.00;;;;;;;12.30;65.30;95376.81;6188231;23;20160;-84
2023/05/01 07:23:50;;;;;;;6.83;5.67;;;;;;;12.37;64.89;95373.41;6189419;23;20139;-85
2023/05/01 07:26:16;;;;;;;6.23;5.27;;;;;;;12.16;65.17;95379.06;6188804;23;20177;-87
2023/05/01 07:38:13;;;;;;;6.13;5.33;;;;;;;12.31;64.69;95370.63;6232888;22;20217;-84
2023/05/01 07:40:38;;;;;;;6.03;5.10;;;;;;;12.64;64.18;95371.44;6192199;23;20173;-86
2023/05/01 07:43:03;;;;;;;5.67;5.10;;;;;;;12.43;63.98;95367.53;6190805;23;20154;-85
2023/05/01 07:45:29;;;;;;;5.30;4.90;;;;;;;12.51;64.20;95368.50;6192081;23;20157;-86
2023/05/01 07:47:55;;;;;;;5.97;4.83;;;;;;;12.72;63.92;95361.84;6190713;23;20162;-86
2023/05/01 07:50:21;;;;;;;7.50;6.80;;;;;;;12.81;64.39;95365.25;6191649;23;20150;-86
2023/05/01 07:52:50;;;;;;;6.10;5.50;;;;;;;12.85;63.00;95366.53;6165820;23;20181;-86
2023/05/01 07:55:18;;;;;;;5.90;5.30;;;;;;;12.93;63.28;95363.91;6193332;23;20170;-86
2023/05/01 07:57:43;;;;;;;5.33;4.87;;;;;;;13.00;62.79;95358.84;6219097;23;20188;-86
2023/05/01 08:00:09;;;;;;;5.53;5.00;;;;;;;12.87;61.75;95368.97;6202747;23;20174;-86
2023/05/01 08:02:35;;;;;;;7.83;6.03;;;;;;;13.05;62.00;95361.75;6216826;23;20154;-85
2023/05/01 08:05:02;;;;;;;6.10;5.50;;;;;;;12.97;61.55;95364.38;6201516;23;20158;-85
2023/05/01 08:07:28;;;;;;;7.60;6.33;;;;;;;13.48;61.48;95368.31;6168515;23;20215;-85
2023/05/01 08:09:56;;;;;;;10.40;8.57;;;;;;;13.36;60.79;95367.06;6192383;23;20182;-86
2023/05/01 08:12:37;;;;;;;7.53;6.67;;;;;;;13.42;60.74;95371.59;6190908;23;20217;-87
2023/05/01 08:15:30;;;;;;;8.80;6.50;;;;;;;13.52;61.16;95371.41;6191767;23;20268;-86
2023/05/01 08:18:18;;;;;;;;;;;;;;;;;;;;;
2023/05/01 08:21:05;;;;;;;;;;;;;;;;;;;;;
2023/05/01 08:24:24;;;;;;;5.30;4.90;;;;;;;14.35;60.18;95368.94;6190954;23;20229;-85
2023/05/01 08:33:45;;;;;;;5.07;4.47;;;;;;;14.75;54.91;95372.22;6039271;23;20187;-85
2023/05/01 08:36:27;;;;;;;;;;;;;;;;;;;;;
2023/05/01 08:39:52;;;;;;;;;;;;;;;;;;;;;
2023/05/01 08:45:46;;;;;;;4.43;3.97;;;;;;;15.67;50.30;95370.13;5949339;24;20199;-86
2023/05/01 08:48:12;;;;;;;5.27;4.77;;;;;;;15.95;50.12;95377.28;5904582;24;20190;-84
2023/05/01 08:50:47;;;;;;;5.67;3.80;;;;;;;16.28;49.21;95380.25;5926809;24;20171;-86
2023/05/01 08:53:23;;;;;;;6.77;4.70;;;;;;;16.77;50.10;95380.31;5927258;24;20195;-85
2023/05/01 08:55:51;;;;;;;4.28;3.88;;;;;;;16.80;47.57;95369.47;5907508;23;20171;-85
2023/05/01 08:58:26;;;;;;;4.38;3.97;;;;;;;16.78;47.97;95378.50;5980867;23;20183;-85
2023/05/01 09:01:00;;;;;;;5.10;3.95;;;;;;;16.32;50.09;95374.44;6006926;23;20174;-85
2023/05/01 09:03:41;;;;;;;4.90;4.50;;;;;;;15.38;51.79;95377.97;6006676;23;20470;-87
2023/05/01 09:06:15;;;;;;;4.28;3.88;;;;;;;16.27;49.92;95376.03;5982886;23;20167;-86
2023/05/01 09:08:40;;;;;;;5.85;4.45;;;;;;;16.00;50.75;95373.13;6011320;23;20250;-87
2023/05/01 09:11:08;;;;;;;4.50;4.10;;;;;;;16.03;51.75;95377.97;6069747;23;20207;-87
2023/05/01 09:13:33;;;;;;;4.90;4.50;;;;;;;16.67;49.14;95369.31;6093117;23;20181;-87
2023/05/01 09:15:59;;;;;;;5.35;4.63;;;;;;;16.42;50.82;95374.13;6118107;23;20163;-81
2023/05/01 09:22:22;;;;;;;4.93;4.40;;;;;;;16.89;49.78;95386.66;6188944;23;20150;-87
2023/05/01 09:24:47;;;;;;;5.55;4.15;;;;;;;16.68;49.13;95376.16;6126868;23;20160;-85
2023/05/01 09:27:13;;;;;;;5.10;4.35;;;;;;;16.90;49.35;95384.84;6125043;23;20673;-86
2023/05/01 09:29:44;;;;;;;4.50;4.10;;;;;;;16.54;50.46;95377.88;6127541;23;20192;-85
2023/05/01 09:32:16;;;;;;;4.45;4.05;;;;;;;16.79;50.37;95388.00;6126409;23;20179;-84
2023/05/01 09:34:42;;;;;;;4.97;4.47;;;;;;;16.74;50.69;95387.75;6128296;23;20758;-84
2023/05/01 09:37:30;;;;;;;4.60;4.30;;;;;;;16.77;50.28;95385.56;6127117;23;20191;-85
2023/05/01 09:40:08;;;;;;;4.97;4.13;;;;;;;16.96;50.52;95394.56;6097630;23;20227;-85
2023/05/01 09:42:39;;;;;;;4.80;4.25;;;;;;;17.20;49.22;95381.03;6099723;23;20188;-85
2023/05/01 09:45:14;;;;;;;5.45;4.93;;;;;;;17.07;49.84;95391.44;6099345;23;20160;-84
2023/05/01 09:47:43;;;;;;;5.10;4.53;;;;;;;17.65;48.13;95380.66;6074179;23;20287;-85
2023/05/01 09:50:10;;;;;;;4.78;4.32;;;;;;;18.10;48.04;95381.84;6098750;23;20177;-86
2023/05/01 09:52:35;;;;;;;5.70;4.65;;;;;;;17.77;46.42;95379.94;6075001;23;20618;-85
2023/05/01 09:55:17;;;;;;;5.00;4.60;;;;;;;17.42;48.14;95379.16;6096632;23;20169;-85
2023/05/01 09:57:44;;;;;;;4.80;4.40;;;;;;;17.56;48.37;95380.81;6096329;23;20160;-85
2023/05/01 10:00:11;;;;;;;5.65;4.35;;;;;;;17.17;50.03;95376.16;6081072;23;20184;-86
2023/05/01 10:02:37;;;;;;;7.63;4.65;;;;;;;17.32;50.48;95383.94;6160800;23;20894;-85
2023/05/01 10:05:02;;;;;;;4.53;4.22;;;;;;;17.21;48.53;95381.81;6137922;23;20159;-86
2023/05/01 10:07:28;;;;;;;7.97;4.97;;;;;;;16.78;49.78;95381.94;6161139;23;20241;-85
2023/05/01 10:09:54;;;;;;;4.90;4.50;;;;;;;16.84;50.13;95390.84;6159053;23;20265;-85
2023/05/01 10:12:27;;;;;;;4.85;4.45;;;;;;;16.85;49.36;95387.22;6159150;23;20162;-85
2023/05/01 10:14:54;;;;;;;5.13;4.63;;;;;;;16.80;50.36;95387.00;6133989;23;20257;-85
2023/05/01 10:17:20;;;;;;;4.93;4.47;;;;;;;17.14;50.13;95394.09;6135380;23;20159;-84
2023/05/01 10:19:46;;;;;;;7.10;4.45;;;;;;;16.72;50.42;95392.38;6113093;23;20265;-85
2023/05/01 10:22:12;;;;;;;4.72;4.32;;;;;;;16.91;50.12;95384.66;6135519;23;20154;-85
2023/05/01 10:24:41;;;;;;;4.85;4.38;;;;;;;16.83;50.09;95399.72;6138718;23;20214;-85
2023/05/01 10:27:07;;;;;;;5.38;4.85;;;;;;;17.20;50.68;95388.09;6138076;23;20767;-85
2023/05/01 10:29:36;;;;;;;6.05;5.00;;;;;;;16.46;51.99;95393.75;6161686;23;20174;-86
2023/05/01 10:32:04;;;;;;;5.10;4.60;;;;;;;16.68;52.38;95394.53;6138006;23;20158;-85
2023/05/01 10:34:30;;;;;;;5.63;5.10;;;;;;;16.94;51.57;95391.34;6161974;23;20181;-86
2023/05/01 10:37:01;;;;;;;5.45;4.95;;;;;;;16.31;52.68;95400.84;6160117;23;20508;-86
2023/05/01 10:39:34;;;;;;;5.13;4.63;;;;;;;17.17;51.61;95397.16;6163090;23;20245;-86
2023/05/01 10:42:03;;;;;;;5.53;5.00;;;;;;;17.28;51.46;95388.75;6163058;23;20147;-86
2023/05/01 10:44:29;;;;;;;7.25;5.28;;;;;;;17.43;50.74;95395.69;6161723;23;20154;-84
2023/05/01 10:46:55;;;;;;;5.30;4.90;;;;;;;17.08;50.79;95390.44;6136790;23;20169;-86
2023/05/01 10:49:20;;;;;;;5.90;5.20;;;;;;;17.23;52.17;95387.72;6163907;23;20265;-85
2023/05/01 10:51:58;;;;;;;5.75;4.72;;;;;;;17.30;53.24;95388.53;6137532;23;20294;-85
2023/05/01 10:54:28;;;;;;;6.13;5.00;;;;;;;16.98;51.79;95389.97;6163617;23;20178;-86
2023/05/01 10:56:55;;;;;;;5.30;4.80;;;;;;;17.02;51.94;95391.19;6137617;23;20618;-85
2023/05/01 10:59:20;;;;;;;6.70;5.22;;;;;;;17.25;51.53;95380.47;6138716;23;20182;-84
2023/05/01 11:01:47;;;;;;;6.45;5.47;;;;;;;17.03;53.46;95386.75;6164033;23;20620;-85
2023/05/01 11:04:21;;;;;;;6.40;5.78;;;;;;;17.25;51.46;95386.50;6138834;23;20154;-85
2023/05/01 11:07:06;;;;;;;6.25;5.07;;;;;;;17.21;52.71;95377.38;6190027;23;20154;-85
2023/05/01 11:09:37;;;;;;;5.20;4.80;;;;;;;18.02;51.79;95385.50;6164580;23;20180;-85
2023/05/01 11:12:03;;;;;;;5.45;5.00;;;;;;;18.35;49.80;95375.03;6139335;23;20166;-85
2023/05/01 11:14:56;;;;;;;5.40;4.90;;;;;;;18.26;51.23;95381.50;6138577;23;20254;-85
2023/05/01 11:17:40;;;;;;;5.53;5.03;;;;;;;18.27;49.45;95380.47;6164524;23;20158;-84
2023/05/01 11:20:06;;;;;;;5.57;4.75;;;;;;;17.77;51.41;95366.81;6164428;23;20186;-84
2023/05/01 11:22:32;;;;;;;5.15;4.75;;;;;;;17.45;52.14;95360.38;6161194;23;20178;-84
2023/05/01 11:24:58;;;;;;;5.80;5.18;;;;;;;17.68;53.49;95373.22;6138560;23;20158;-86
2023/05/01 11:27:24;;;;;;;4.85;4.35;;;;;;;18.46;51.59;95371.00;6140214;23;20159;-84
2023/05/01 11:29:49;;;;;;;5.95;4.60;;;;;;;17.98;51.49;95367.69;6139627;23;20189;-84
2023/05/01 11:32:21;;;;;;;5.68;4.85;;;;;;;17.63;51.68;95359.84;6137245;23;20154;-84
2023/05/01 11:34:47;;;;;;;4.75;4.35;;;;;;;17.91;52.35;95362.41;6148313;23;20159;-84
2023/05/01 11:37:13;;;;;;;5.95;4.88;;;;;;;17.84;51.05;95356.31;6185264;23;20181;-85
2023/05/01 11:39:46;;;;;;;4.85;4.45;;;;;;;17.48;53.13;95362.59;6165753;23;20251;-84
2023/05/01 11:42:12;;;;;;;5.18;4.70;;;;;;;17.46;53.80;95369.06;6135434;23;20155;-84
2023/05/01 11:44:37;;;;;;;5.30;4.78;;;;;;;17.32;53.87;95368.19;6136030;23;20213;-83
2023/05/01 11:47:06;;;;;;;5.53;5.05;;;;;;;17.58;53.93;95369.31;6159579;23;20163;-83
2023/05/01 11:49:31;;;;;;;7.78;4.68;;;;;;;17.48;52.67;95364.41;6160722;23;20256;-84
2023/05/01 11:51:57;;;;;;;6.93;5.40;;;;;;;17.14;53.11;95359.97;6136735;23;20443;-84
2023/05/01 11:54:22;;;;;;;6.13;5.55;;;;;;;17.10;53.64;95364.81;6137281;23;20179;-84
2023/05/01 11:56:56;;;;;;;5.72;4.90;;;;;;;16.80;54.33;95366.84;6136282;23;20155;-84
2023/05/01 11:59:22;;;;;;;5.45;5.00;;;;;;;16.62;54.65;95355.97;6136039;23;20269;-84
2023/05/01 12:01:50;;;;;;;5.30;4.90;;;;;;;16.56;54.30;95356.72;6160732;23;20158;-85
2023/05/01 12:04:25;;;;;;;5.45;4.55;;;;;;;17.26;52.97;95359.25;6161266;23;20650;-85
2023/05/01 12:06:50;;;;;;;5.35;4.72;;;;;;;17.17;52.32;95354.38;6136290;23;20209;-84
2023/05/01 12:09:20;;;;;;;5.03;4.47;;;;;;;17.06;51.69;95363.59;6160516;23;20178;-85
2023/05/01 12:11:47;;;;;;;5.35;4.18;;;;;;;17.29;50.88;95358.06;6136371;23;20186;-84